Time;durP1;ratioP1;P1;durP2;ratioP2;P2;SDS_P1;SDS_P2;PMS_P1;PMS_P2;Temp;Humidity;BMP_temperature;BMP_pressure;BME280_temperature;BME280_humidity;BME280_pressure;Samples;Min_cycle;Max_cycle;Signal;HPM_P1;HPM_P2
2022/07/31 00:02:05;;;;;;;;;25.20;24.40;;;;;;;;5228265;28;9581;-72
2022/07/31 00:04:36;;;;;;;;;27.60;27.60;;;;;;;;5245640;28;8815;-72
2022/07/31 00:07:07;;;;;;;;;31.20;30.20;;;;;;;;5223519;28;8811;-72
2022/07/31 00:09:38;;;;;;;;;31.80;31.00;;;;;;;;5229030;28;8799;-72
2022/07/31 00:12:28;;;;;;;;;31.20;30.20;;;;;;;;5245446;28;8768;-72
2022/07/31 00:14:59;;;;;;;;;31.60;30.80;;;;;;;;5245439;28;8811;-72
2022/07/31 00:17:30;;;;;;;;;19.60;19.60;;;;;;;;5228723;28;8795;-72
2022/07/31 00:20:02;;;;;;;;;25.00;25.00;;;;;;;;5229002;28;8798;-71
2022/07/31 00:22:34;;;;;;;;;26.00;25.60;;;;;;;;5212588;28;8811;-72
2022/07/31 00:25:05;;;;;;;;;22.80;22.80;;;;;;;;5246208;28;8875;-72
2022/07/31 00:27:37;;;;;;;;;23.00;23.00;;;;;;;;5267552;28;8779;-72
2022/07/31 00:30:08;;;;;;;;;23.00;23.00;;;;;;;;5233075;28;8776;-72
2022/07/31 00:32:40;;;;;;;;;25.00;25.00;;;;;;;;5266112;28;8856;-72
2022/07/31 00:35:12;;;;;;;;;26.60;26.20;;;;;;;;5249122;28;8768;-73
2022/07/31 00:37:44;;;;;;;;;39.40;35.80;;;;;;;;5264893;28;8781;-73
2022/07/31 00:40:16;;;;;;;;;24.00;23.80;;;;;;;;5266080;28;8811;-72
2022/07/31 00:42:47;;;;;;;;;24.60;24.60;;;;;;;;5232822;28;8796;-73
2022/07/31 00:45:19;;;;;;;;;25.60;25.60;;;;;;;;5228074;28;9541;-73
2022/07/31 00:47:50;;;;;;;;;24.80;24.80;;;;;;;;5245009;28;9525;-73
2022/07/31 00:50:21;;;;;;;;;24.00;23.75;;;;;;;;5245103;28;8838;-72
2022/07/31 00:52:53;;;;;;;;;21.75;21.75;;;;;;;;5228123;28;8779;-73
2022/07/31 00:55:25;;;;;;;;;27.60;27.20;;;;;;;;5228796;28;8922;-72
2022/07/31 00:57:57;;;;;;;;;25.40;25.40;;;;;;;;5211406;28;8810;-73
2022/07/31 01:00:29;;;;;;;;;23.00;23.00;;;;;;;;5228341;28;8787;-73
2022/07/31 01:03:19;;;;;;;;;30.00;29.80;;;;;;;;5245288;28;8787;-73
2022/07/31 01:05:50;;;;;;;;;28.00;28.00;;;;;;;;5211806;28;8822;-73
2022/07/31 01:08:21;;;;;;;;;21.00;21.00;;;;;;;;5228274;28;8775;-73
2022/07/31 01:10:57;;;;;;;;;26.40;26.40;;;;;;;;5211734;28;8864;-72
2022/07/31 01:13:54;;;;;;;;;25.60;24.40;;;;;;;;5211800;28;8786;-72
2022/07/31 01:16:28;;;;;;;;;40.60;36.00;;;;;;;;5251091;28;8839;-72
2022/07/31 01:19:04;;;;;;;;;28.60;28.60;;;;;;;;5244725;28;9518;-72
2022/07/31 01:21:38;;;;;;;;;27.75;27.25;;;;;;;;5228271;28;8929;-72
2022/07/31 01:24:13;;;;;;;;;22.75;22.75;;;;;;;;5244679;28;8818;-73
2022/07/31 01:27:09;;;;;;;;;25.20;25.20;;;;;;;;5230654;28;8787;-75
2022/07/31 01:29:42;;;;;;;;;23.50;23.50;;;;;;;;5260431;28;8831;-72
2022/07/31 01:32:16;;;;;;;;;23.75;23.50;;;;;;;;5232064;28;8773;-73
2022/07/31 01:34:53;;;;;;;;;35.60;33.00;;;;;;;;5232370;28;9546;-72
2022/07/31 01:37:48;;;;;;;;;24.00;24.00;;;;;;;;5243061;28;8791;-71
2022/07/31 01:40:25;;;;;;;;;26.60;26.60;;;;;;;;5245280;28;9493;-73
2022/07/31 01:43:06;;;;;;;;;23.50;23.25;;;;;;;;5256238;28;8867;-73
2022/07/31 01:45:39;;;;;;;;;21.00;21.00;;;;;;;;5228143;28;8957;-74
2022/07/31 01:48:31;;;;;;;;;24.75;24.75;;;;;;;;5263290;28;8792;-73
2022/07/31 01:51:03;;;;;;;;;21.50;21.25;;;;;;;;5263570;28;8865;-74
2022/07/31 01:53:37;;;;;;;;;23.75;23.75;;;;;;;;5229056;28;9013;-73
2022/07/31 01:56:09;;;;;;;;;21.25;21.25;;;;;;;;5228685;28;8799;-74
2022/07/31 01:58:43;;;;;;;;;27.25;26.25;;;;;;;;5263343;28;8886;-72
2022/07/31 02:01:29;;;;;;;;;17.00;17.00;;;;;;;;5247244;28;8835;-73
2022/07/31 02:04:01;;;;;;;;;22.00;22.00;;;;;;;;5244533;28;8826;-72
2022/07/31 02:06:35;;;;;;;;;21.50;21.50;;;;;;;;5211619;28;9493;-72
2022/07/31 02:09:24;;;;;;;;;26.75;26.75;;;;;;;;5246433;28;8767;-73
2022/07/31 02:11:55;;;;;;;;;23.25;23.25;;;;;;;;5247284;28;8834;-72
2022/07/31 02:14:28;;;;;;;;;25.00;25.00;;;;;;;;5232128;28;8784;-72
2022/07/31 02:17:00;;;;;;;;;23.50;23.50;;;;;;;;5261842;28;9562;-73
2022/07/31 02:19:51;;;;;;;;;24.00;23.00;;;;;;;;5266978;28;8789;-72
2022/07/31 02:22:22;;;;;;;;;26.00;26.00;;;;;;;;5266930;28;8828;-72
2022/07/31 02:24:54;;;;;;;;;24.50;24.50;;;;;;;;5247735;28;8927;-72
2022/07/31 02:27:25;;;;;;;;;25.00;25.00;;;;;;;;5267041;28;8776;-72
2022/07/31 02:29:59;;;;;;;;;26.20;26.20;;;;;;;;5266618;28;8809;-72
2022/07/31 02:32:31;;;;;;;;;26.00;26.00;;;;;;;;5267841;28;8833;-73
2022/07/31 02:35:02;;;;;;;;;26.20;26.20;;;;;;;;5266984;28;8810;-71
2022/07/31 02:37:36;;;;;;;;;26.25;26.00;;;;;;;;5228000;28;8779;-71
2022/07/31 02:40:08;;;;;;;;;21.00;21.00;;;;;;;;5266532;28;8788;-73
2022/07/31 02:42:41;;;;;;;;;31.20;30.40;;;;;;;;5250171;28;8810;-73
2022/07/31 02:45:14;;;;;;;;;29.75;29.75;;;;;;;;5247804;28;8785;-73
2022/07/31 02:47:47;;;;;;;;;54.80;45.60;;;;;;;;5247225;28;8819;-73
2022/07/31 02:50:20;;;;;;;;;55.20;46.40;;;;;;;;5245096;28;8811;-73
2022/07/31 02:52:54;;;;;;;;;70.20;61.00;;;;;;;;5247897;28;8859;-74
2022/07/31 02:55:25;;;;;;;;;50.80;43.60;;;;;;;;5248226;28;8799;-73
2022/07/31 02:57:57;;;;;;;;;44.60;37.80;;;;;;;;5250550;28;8797;-73
2022/07/31 03:00:29;;;;;;;;;23.25;23.00;;;;;;;;5251122;28;8772;-72
2022/07/31 03:03:02;;;;;;;;;39.60;35.20;;;;;;;;5251090;28;8781;-72
2022/07/31 03:05:34;;;;;;;;;44.80;38.80;;;;;;;;5267847;28;8816;-73
2022/07/31 03:08:23;;;;;;;;;49.20;42.00;;;;;;;;5236413;28;8812;-71
2022/07/31 03:10:57;;;;;;;;;48.40;41.40;;;;;;;;5231418;28;8922;-72
2022/07/31 03:13:31;;;;;;;;;35.60;32.60;;;;;;;;5260234;28;8817;-72
2022/07/31 03:16:03;;;;;;;;;31.40;30.00;;;;;;;;5236671;28;8811;-72
2022/07/31 03:18:35;;;;;;;;;53.00;44.80;;;;;;;;5252168;28;8787;-73
2022/07/31 03:21:08;;;;;;;;;44.00;37.40;;;;;;;;5234435;28;8904;-73
2022/07/31 03:23:39;;;;;;;;;46.80;39.40;;;;;;;;5230120;28;8864;-74
2022/07/31 03:26:16;;;;;;;;;34.00;31.80;;;;;;;;5246244;28;8916;-73
2022/07/31 03:28:48;;;;;;;;;25.25;25.00;;;;;;;;5229329;28;8775;-73
2022/07/31 03:31:19;;;;;;;;;19.00;19.00;;;;;;;;5246576;28;8829;-73
2022/07/31 03:34:10;;;;;;;;;25.25;25.25;;;;;;;;5231870;28;8791;-74
2022/07/31 03:36:41;;;;;;;;;28.50;28.50;;;;;;;;5254530;28;8785;-74
2022/07/31 03:39:31;;;;;;;;;24.75;24.50;;;;;;;;5252368;28;8834;-74
2022/07/31 03:42:09;;;;;;;;;22.25;22.25;;;;;;;;5251010;28;8772;-74
2022/07/31 03:44:42;;;;;;;;;23.75;23.75;;;;;;;;5250258;28;8820;-75
2022/07/31 03:47:14;;;;;;;;;21.50;21.50;;;;;;;;5250447;28;8789;-75
2022/07/31 03:49:46;;;;;;;;;23.00;22.50;;;;;;;;5249954;28;8810;-74
2022/07/31 03:52:17;;;;;;;;;24.50;24.50;;;;;;;;5245203;28;8848;-75
2022/07/31 03:54:49;;;;;;;;;22.75;22.75;;;;;;;;5229226;28;8861;-75
2022/07/31 03:57:38;;;;;;;;;21.25;21.25;;;;;;;;5246302;28;8767;-75
2022/07/31 04:00:10;;;;;;;;;12.25;12.25;;;;;;;;5245797;28;8780;-75
2022/07/31 04:03:04;;;;;;;;;19.25;19.25;;;;;;;;5246147;28;8779;-74
2022/07/31 04:05:49;;;;;;;;;24.75;24.75;;;;;;;;5246983;28;8807;-75
2022/07/31 04:08:20;;;;;;;;;20.25;20.25;;;;;;;;5245877;28;8802;-75
2022/07/31 04:10:52;;;;;;;;;32.75;30.75;;;;;;;;5229322;28;9514;-74
2022/07/31 04:13:27;;;;;;;;;22.00;22.00;;;;;;;;5262421;28;8799;-74
2022/07/31 04:15:58;;;;;;;;;33.75;32.00;;;;;;;;5265820;28;8839;-74
2022/07/31 04:18:30;;;;;;;;;34.20;32.40;;;;;;;;5233136;28;8784;-74
2022/07/31 04:21:02;;;;;;;;;44.60;38.80;;;;;;;;5249807;28;8946;-75
2022/07/31 04:23:33;;;;;;;;;20.75;20.75;;;;;;;;5233285;28;9475;-75
2022/07/31 04:26:23;;;;;;;;;21.00;21.00;;;;;;;;5251966;28;8781;-75
2022/07/31 04:29:00;;;;;;;;;29.50;29.25;;;;;;;;5267238;28;9502;-75
2022/07/31 04:31:32;;;;;;;;;20.50;20.50;;;;;;;;5243575;28;8813;-74
2022/07/31 04:34:03;;;;;;;;;27.00;27.00;;;;;;;;5228784;28;8860;-76
2022/07/31 04:36:53;;;;;;;;;23.75;23.75;;;;;;;;5246345;28;8787;-77
2022/07/31 04:39:24;;;;;;;;;25.50;25.00;;;;;;;;5254140;28;8780;-74
2022/07/31 04:42:14;;;;;;;;;24.50;24.25;;;;;;;;5266260;28;8784;-75
2022/07/31 04:45:04;;;;;;;;;23.75;23.25;;;;;;;;5265924;28;8820;-75
2022/07/31 04:47:36;;;;;;;;;20.75;20.75;;;;;;;;5264604;28;8805;-75
2022/07/31 04:50:25;;;;;;;;;23.75;20.25;;;;;;;;5266747;28;8796;-74
2022/07/31 04:53:01;;;;;;;;;33.00;31.75;;;;;;;;5250144;28;9526;-74
2022/07/31 04:55:38;;;;;;;;;25.00;25.00;;;;;;;;5244681;28;8795;-72
2022/07/31 04:58:09;;;;;;;;;18.00;18.00;;;;;;;;5228797;28;8790;-73
2022/07/31 05:00:40;;;;;;;;;23.00;23.00;;;;;;;;5245127;28;8763;-73
2022/07/31 05:03:11;;;;;;;;;21.25;21.25;;;;;;;;5245282;28;8779;-74
2022/07/31 05:05:44;;;;;;;;;21.00;21.00;;;;;;;;5211810;28;8811;-72
2022/07/31 05:08:15;;;;;;;;;22.25;22.25;;;;;;;;5247676;28;8813;-73
2022/07/31 05:11:23;;;;;;;;;28.00;27.75;;;;;;;;5232212;28;8907;-73
2022/07/31 05:13:56;;;;;;;;;19.50;19.50;;;;;;;;5226200;28;8783;-73
2022/07/31 05:16:27;;;;;;;;;27.25;27.25;;;;;;;;5247222;28;9543;-74
2022/07/31 05:18:59;;;;;;;;;20.75;20.75;;;;;;;;5265060;28;8776;-73
2022/07/31 05:21:59;;;;;;;;;37.80;34.20;;;;;;;;5180655;28;8816;-75
2022/07/31 05:24:53;;;;;;;;;31.00;30.00;;;;;;;;5255346;28;8836;-73
2022/07/31 05:27:24;;;;;;;;;28.00;28.00;;;;;;;;5247323;28;8811;-74
2022/07/31 05:29:55;;;;;;;;;25.00;25.00;;;;;;;;5253427;28;8811;-74
2022/07/31 05:32:27;;;;;;;;;20.00;20.00;;;;;;;;5242558;28;10136;-73
2022/07/31 05:34:58;;;;;;;;;25.75;25.75;;;;;;;;5226208;28;8945;-73
2022/07/31 05:37:29;;;;;;;;;25.25;25.25;;;;;;;;5226110;28;8937;-73
2022/07/31 05:40:03;;;;;;;;;24.75;24.75;;;;;;;;5210118;28;8783;-73
2022/07/31 05:42:54;;;;;;;;;26.25;26.25;;;;;;;;5243928;28;8787;-73
2022/07/31 05:45:36;;;;;;;;;19.25;19.25;;;;;;;;5230037;28;8943;-73
2022/07/31 05:48:07;;;;;;;;;20.25;20.25;;;;;;;;5262351;28;8803;-74
2022/07/31 05:50:42;;;;;;;;;19.75;18.75;;;;;;;;5257662;28;8803;-74
2022/07/31 05:53:14;;;;;;;;;15.50;15.50;;;;;;;;5248100;28;8775;-74
2022/07/31 05:56:04;;;;;;;;;16.50;16.50;;;;;;;;5256308;28;8772;-75
2022/07/31 05:58:53;;;;;;;;;17.75;17.75;;;;;;;;5249787;28;8779;-75
2022/07/31 06:01:24;;;;;;;;;18.25;18.25;;;;;;;;5248546;28;8860;-74
2022/07/31 06:03:56;;;;;;;;;21.00;21.00;;;;;;;;5248071;28;8811;-74
2022/07/31 06:06:35;;;;;;;;;20.00;20.00;;;;;;;;5248165;28;8791;-75
2022/07/31 06:09:06;;;;;;;;;21.00;20.33;;;;;;;;5231199;28;8818;-74
2022/07/31 06:11:45;;;;;;;;;22.25;21.75;;;;;;;;5232489;28;9021;-75
2022/07/31 06:14:34;;;;;;;;;20.50;20.50;;;;;;;;5233867;28;8841;-75
2022/07/31 06:17:18;;;;;;;;;19.50;19.50;;;;;;;;5233382;28;8771;-74
2022/07/31 06:19:49;;;;;;;;;21.00;21.00;;;;;;;;5214864;28;8798;-74
2022/07/31 06:22:20;;;;;;;;;19.75;19.75;;;;;;;;5247743;28;8807;-74
2022/07/31 06:24:51;;;;;;;;;21.50;21.50;;;;;;;;5248172;28;8806;-74
2022/07/31 06:27:22;;;;;;;;;19.75;19.75;;;;;;;;5214478;28;8889;-74
2022/07/31 06:29:55;;;;;;;;;22.25;22.25;;;;;;;;5247463;28;8783;-74
2022/07/31 06:32:26;;;;;;;;;21.25;21.25;;;;;;;;5247911;28;8832;-74
2022/07/31 06:34:59;;;;;;;;;18.75;18.75;;;;;;;;5214309;28;8791;-75
2022/07/31 06:37:33;;;;;;;;;20.50;20.50;;;;;;;;5215028;28;8852;-74
2022/07/31 06:40:05;;;;;;;;;12.50;12.50;;;;;;;;5230767;28;8790;-74
2022/07/31 06:43:12;;;;;;;;;19.25;19.25;;;;;;;;5236718;28;8791;-74
2022/07/31 06:46:06;;;;;;;;;19.00;19.00;;;;;;;;5233785;28;8815;-74
2022/07/31 06:48:55;;;;;;;;;19.00;19.00;;;;;;;;5248150;28;8923;-74
2022/07/31 06:51:27;;;;;;;;;17.50;17.50;;;;;;;;5230511;28;8834;-74
2022/07/31 06:54:02;;;;;;;;;11.25;11.00;;;;;;;;5221326;28;8775;-73
2022/07/31 06:56:34;;;;;;;;;14.25;14.25;;;;;;;;5239758;28;9529;-74
2022/07/31 06:59:06;;;;;;;;;17.00;17.00;;;;;;;;5234863;28;8779;-75
2022/07/31 07:01:37;;;;;;;;;18.67;18.67;;;;;;;;5230216;28;8806;-74
2022/07/31 07:04:08;;;;;;;;;16.00;16.00;;;;;;;;5264599;28;8796;-76
2022/07/31 07:06:40;;;;;;;;;19.00;19.00;;;;;;;;5234644;28;8772;-74
2022/07/31 07:09:29;;;;;;;;;18.00;18.00;;;;;;;;5249660;28;8771;-74
2022/07/31 07:12:00;;;;;;;;;16.75;16.75;;;;;;;;5246932;28;8767;-75
2022/07/31 07:14:31;;;;;;;;;19.75;19.75;;;;;;;;5229832;28;8791;-75
2022/07/31 07:17:05;;;;;;;;;14.00;14.00;;;;;;;;5246947;28;8771;-74
2022/07/31 07:19:40;;;;;;;;;19.00;19.00;;;;;;;;5230024;28;8819;-74
2022/07/31 07:22:31;;;;;;;;;20.00;20.00;;;;;;;;5246279;28;9607;-74
2022/07/31 07:25:03;;;;;;;;;17.50;17.50;;;;;;;;5246361;28;8938;-74
2022/07/31 07:27:35;;;;;;;;;17.75;17.75;;;;;;;;5242909;28;8806;-74
2022/07/31 07:30:07;;;;;;;;;20.25;20.25;;;;;;;;5229914;28;8769;-74
2022/07/31 07:32:56;;;;;;;;;15.75;15.75;;;;;;;;5241602;28;8900;-74
2022/07/31 07:35:46;;;;;;;;;19.50;19.50;;;;;;;;5236858;28;9572;-74
2022/07/31 07:38:35;;;;;;;;;18.25;18.00;;;;;;;;5256730;28;8805;-74
2022/07/31 07:41:07;;;;;;;;;19.25;19.25;;;;;;;;5256574;28;9580;-74
2022/07/31 07:43:39;;;;;;;;;19.50;19.50;;;;;;;;5228596;28;8814;-75
2022/07/31 07:46:10;;;;;;;;;19.00;19.00;;;;;;;;5248314;28;8805;-74
2022/07/31 07:48:45;;;;;;;;;20.50;20.50;;;;;;;;5240632;28;8934;-78
2022/07/31 07:51:22;;;;;;;;;23.25;22.75;;;;;;;;5237638;28;8856;-81
2022/07/31 07:54:06;;;;;;;;;21.00;21.00;;;;;;;;5249264;28;8849;-80
2022/07/31 07:56:56;;;;;;;;;19.75;19.75;;;;;;;;5267874;28;8931;-77
2022/07/31 07:59:46;;;;;;;;;17.00;17.00;;;;;;;;5267245;28;8800;-79
2022/07/31 08:02:47;;;;;;;;;16.75;16.75;;;;;;;;5264285;28;8857;-80
2022/07/31 08:05:19;;;;;;;;;17.00;17.00;;;;;;;;5267194;28;8818;-80
2022/07/31 08:07:51;;;;;;;;;19.25;19.25;;;;;;;;5257618;28;8919;-79
2022/07/31 08:10:39;;;;;;;;;18.00;18.00;;;;;;;;5231997;28;8906;-78
2022/07/31 08:13:27;;;;;;;;;18.50;18.50;;;;;;;;5229519;28;8908;-79
2022/07/31 08:16:37;;;;;;;;;21.00;21.00;;;;;;;;5183271;28;8851;-79
2022/07/31 08:19:08;;;;;;;;;18.25;18.25;;;;;;;;5150329;28;8819;-79
2022/07/31 08:21:39;;;;;;;;;19.50;19.50;;;;;;;;5208614;28;8811;-82
2022/07/31 08:24:28;;;;;;;;;15.50;15.50;;;;;;;;5231604;28;8822;-80
2022/07/31 08:29:50;;;;;;;;;18.25;18.25;;;;;;;;5229196;28;8779;-80
2022/07/31 08:32:24;;;;;;;;;17.00;16.50;;;;;;;;5228889;28;8813;-79
2022/07/31 08:35:19;;;;;;;;;17.00;17.00;;;;;;;;5232465;28;8900;-79
2022/07/31 08:37:51;;;;;;;;;17.50;17.50;;;;;;;;5229837;28;8791;-80
2022/07/31 08:40:24;;;;;;;;;19.00;19.00;;;;;;;;5228971;28;8799;-79
2022/07/31 08:42:55;;;;;;;;;20.00;20.00;;;;;;;;5228412;28;8791;-78
2022/07/31 08:45:47;;;;;;;;;18.25;18.25;;;;;;;;5245607;28;8815;-79
2022/07/31 08:48:30;;;;;;;;;19.50;19.50;;;;;;;;5228693;28;8787;-78
2022/07/31 08:51:05;;;;;;;;;20.00;20.00;;;;;;;;5212276;28;8790;-77
2022/07/31 08:54:09;;;;;;;;;20.25;20.25;;;;;;;;5244407;28;9577;-78
2022/07/31 08:56:40;;;;;;;;;17.50;17.50;;;;;;;;5228709;28;8782;-78
2022/07/31 08:59:39;;;;;;;;;18.50;18.50;;;;;;;;5245835;28;8791;-78
2022/07/31 09:02:14;;;;;;;;;18.25;18.25;;;;;;;;5231642;28;8777;-79
2022/07/31 09:05:07;;;;;;;;;19.00;19.00;;;;;;;;5236163;28;8831;-79
2022/07/31 09:07:38;;;;;;;;;18.75;18.75;;;;;;;;5245871;28;8796;-83
2022/07/31 09:10:38;;;;;;;;;18.50;18.50;;;;;;;;5253482;28;9503;-80
2022/07/31 09:13:13;;;;;;;;;20.25;20.25;;;;;;;;5244117;28;8822;-80
2022/07/31 09:15:49;;;;;;;;;20.00;20.00;;;;;;;;5228593;28;8984;-81
2022/07/31 09:18:25;;;;;;;;;18.33;18.33;;;;;;;;5231346;28;8775;-77
2022/07/31 09:21:07;;;;;;;;;18.50;18.50;;;;;;;;5217228;28;8823;-77
2022/07/31 09:23:43;;;;;;;;;15.50;15.50;;;;;;;;5232466;28;8930;-78
2022/07/31 09:26:18;;;;;;;;;19.75;19.75;;;;;;;;5238810;28;8800;-77
2022/07/31 09:28:50;;;;;;;;;17.00;17.00;;;;;;;;5232326;28;8925;-77
2022/07/31 09:31:21;;;;;;;;;14.75;14.75;;;;;;;;5232562;28;8783;-79
2022/07/31 09:34:11;;;;;;;;;16.00;16.00;;;;;;;;5250391;28;8791;-76
2022/07/31 09:36:45;;;;;;;;;16.25;16.25;;;;;;;;5250340;28;8837;-79
2022/07/31 09:39:36;;;;;;;;;18.75;18.75;;;;;;;;5236016;28;8795;-78
2022/07/31 09:42:19;;;;;;;;;20.50;20.50;;;;;;;;5249513;28;9631;-78
2022/07/31 09:45:17;;;;;;;;;22.50;22.50;;;;;;;;5234023;28;8904;-78
2022/07/31 09:48:05;;;;;;;;;17.25;17.25;;;;;;;;5242986;28;8909;-80
2022/07/31 09:50:38;;;;;;;;;15.25;15.25;;;;;;;;5232437;28;8831;-80
2022/07/31 09:53:09;;;;;;;;;16.25;16.25;;;;;;;;5248989;28;8771;-80
2022/07/31 09:55:49;;;;;;;;;18.75;18.75;;;;;;;;5264869;28;8767;-78
2022/07/31 09:58:21;;;;;;;;;19.75;19.75;;;;;;;;5235313;28;8790;-79
2022/07/31 10:00:52;;;;;;;;;26.75;26.75;;;;;;;;5252775;28;9561;-79
2022/07/31 10:03:24;;;;;;;;;22.75;22.75;;;;;;;;5241302;28;8787;-78
2022/07/31 10:05:56;;;;;;;;;23.00;23.00;;;;;;;;5231830;28;9564;-79
2022/07/31 10:08:27;;;;;;;;;23.50;23.50;;;;;;;;5215398;28;8767;-80
2022/07/31 10:11:18;;;;;;;;;19.00;19.00;;;;;;;;5234809;28;9198;-81
2022/07/31 10:14:01;;;;;;;;;32.75;31.00;;;;;;;;5217294;28;8904;-80
2022/07/31 10:16:35;;;;;;;;;20.00;20.00;;;;;;;;5215080;28;8810;-80
2022/07/31 10:19:26;;;;;;;;;15.75;15.75;;;;;;;;5235310;28;8799;-79
2022/07/31 10:22:17;;;;;;;;;18.25;18.25;;;;;;;;5234084;28;8802;-80
2022/07/31 10:24:49;;;;;;;;;18.50;18.50;;;;;;;;5215062;28;8830;-80
2022/07/31 10:27:20;;;;;;;;;18.00;18.00;;;;;;;;5215299;28;8795;-78
2022/07/31 10:30:10;;;;;;;;;18.25;18.25;;;;;;;;5257997;28;8756;-81
2022/07/31 10:33:02;;;;;;;;;12.75;12.75;;;;;;;;5252647;28;8897;-80
2022/07/31 10:36:04;;;;;;;;;15.00;15.00;;;;;;;;5238379;28;9548;-81
2022/07/31 10:38:59;;;;;;;;;17.25;17.25;;;;;;;;5252417;28;8787;-77
2022/07/31 10:42:05;;;;;;;;;15.75;15.50;;;;;;;;5260055;28;8824;-79
2022/07/31 10:44:40;;;;;;;;;17.25;17.25;;;;;;;;5247013;28;8843;-80
2022/07/31 10:47:22;;;;;;;;;15.25;15.25;;;;;;;;5229455;28;8767;-82
2022/07/31 10:50:23;;;;;;;;;18.50;18.50;;;;;;;;5249412;28;8818;-81
2022/07/31 10:53:15;;;;;;;;;21.25;21.00;;;;;;;;5248739;28;8825;-82
2022/07/31 10:56:16;;;;;;;;;17.25;17.25;;;;;;;;5233885;28;8882;-80
2022/07/31 10:59:07;;;;;;;;;18.75;18.75;;;;;;;;5246854;28;8815;-79
2022/07/31 11:01:55;;;;;;;;;18.50;18.50;;;;;;;;5217003;28;8791;-80
2022/07/31 11:04:41;;;;;;;;;18.00;17.25;;;;;;;;5215940;28;8803;-78
2022/07/31 11:07:33;;;;;;;;;19.50;19.50;;;;;;;;5246786;28;8798;-79
2022/07/31 11:10:20;;;;;;;;;21.00;21.00;;;;;;;;5215953;28;8783;-76
2022/07/31 11:13:24;;;;;;;;;18.00;18.00;;;;;;;;5226723;28;8801;-81
2022/07/31 11:16:09;;;;;;;;;17.00;17.00;;;;;;;;5250954;28;8919;-80
2022/07/31 11:18:58;;;;;;;;;16.25;16.00;;;;;;;;5250926;28;8777;-79
2022/07/31 11:21:34;;;;;;;;;23.00;23.00;;;;;;;;5234138;28;8804;-79
2022/07/31 11:24:23;;;;;;;;;22.50;21.50;;;;;;;;5248340;28;8823;-79
2022/07/31 11:27:12;;;;;;;;;21.50;21.50;;;;;;;;5232297;28;8795;-79
2022/07/31 11:29:46;;;;;;;;;17.25;17.25;;;;;;;;5229907;28;8796;-79
2022/07/31 11:32:17;;;;;;;;;17.50;17.50;;;;;;;;5246590;28;8886;-79
2022/07/31 11:34:53;;;;;;;;;19.00;19.00;;;;;;;;5246497;28;8787;-78
2022/07/31 11:37:25;;;;;;;;;21.25;21.25;;;;;;;;5247493;28;8799;-78
2022/07/31 11:39:57;;;;;;;;;18.25;18.25;;;;;;;;5246454;28;8893;-78
2022/07/31 11:42:28;;;;;;;;;18.75;18.75;;;;;;;;5230035;28;8830;-80
2022/07/31 11:45:03;;;;;;;;;18.25;18.25;;;;;;;;5229666;28;8815;-78
2022/07/31 11:47:54;;;;;;;;;20.00;20.00;;;;;;;;5247279;28;8780;-80
2022/07/31 11:50:46;;;;;;;;;18.75;18.75;;;;;;;;5212843;28;8864;-79
2022/07/31 11:53:18;;;;;;;;;19.75;19.00;;;;;;;;5245621;28;8811;-78
2022/07/31 11:55:50;;;;;;;;;20.00;20.00;;;;;;;;5229434;28;8780;-78
2022/07/31 11:58:45;;;;;;;;;17.50;17.25;;;;;;;;5231885;28;9404;-79
2022/07/31 12:01:16;;;;;;;;;17.25;16.50;;;;;;;;5246156;28;8771;-79
2022/07/31 12:03:48;;;;;;;;;20.25;20.25;;;;;;;;5243759;28;9748;-79
2022/07/31 12:06:20;;;;;;;;;14.50;14.50;;;;;;;;5229421;28;8885;-78
2022/07/31 12:08:51;;;;;;;;;19.00;19.00;;;;;;;;5229690;28;8922;-77
2022/07/31 12:11:22;;;;;;;;;19.75;19.75;;;;;;;;5230729;28;8909;-78
2022/07/31 12:13:54;;;;;;;;;23.50;21.50;;;;;;;;5249733;28;8769;-77
2022/07/31 12:16:25;;;;;;;;;17.00;17.00;;;;;;;;5267401;28;8819;-78
2022/07/31 12:19:00;;;;;;;;;18.50;18.50;;;;;;;;5266700;28;8780;-78
2022/07/31 12:21:32;;;;;;;;;17.75;17.75;;;;;;;;5244573;28;8823;-79
2022/07/31 12:24:11;;;;;;;;;17.75;17.75;;;;;;;;5229630;28;8847;-78
2022/07/31 12:26:43;;;;;;;;;14.25;14.25;;;;;;;;5245853;28;8799;-77
2022/07/31 12:29:16;;;;;;;;;18.50;18.50;;;;;;;;5212747;28;8783;-78
2022/07/31 12:31:49;;;;;;;;;19.25;19.25;;;;;;;;5245412;28;8787;-77
2022/07/31 12:34:29;;;;;;;;;19.75;19.75;;;;;;;;5230043;28;8791;-78
2022/07/31 12:37:04;;;;;;;;;20.25;20.25;;;;;;;;5212257;28;8791;-77
2022/07/31 12:39:48;;;;;;;;;17.75;17.75;;;;;;;;5212412;28;8809;-77
2022/07/31 12:42:20;;;;;;;;;19.50;19.25;;;;;;;;5221794;28;8795;-77
2022/07/31 12:44:52;;;;;;;;;21.50;20.25;;;;;;;;5211943;28;8970;-78
2022/07/31 12:47:28;;;;;;;;;20.75;20.75;;;;;;;;5228864;28;8921;-76
2022/07/31 12:50:00;;;;;;;;;20.75;20.50;;;;;;;;5229057;28;8787;-76
2022/07/31 12:52:33;;;;;;;;;19.50;19.50;;;;;;;;5211724;28;9548;-77
2022/07/31 12:55:09;;;;;;;;;16.25;16.25;;;;;;;;5245071;28;9607;-77
2022/07/31 12:57:40;;;;;;;;;19.50;19.50;;;;;;;;5228905;28;8791;-75
2022/07/31 13:00:11;;;;;;;;;17.50;17.50;;;;;;;;5212436;28;8893;-77
2022/07/31 13:02:42;;;;;;;;;20.00;20.00;;;;;;;;5212998;28;9776;-76
2022/07/31 13:05:13;;;;;;;;;22.00;22.00;;;;;;;;5228825;28;8811;-75
2022/07/31 13:07:44;;;;;;;;;18.00;18.00;;;;;;;;5244852;28;8788;-77
2022/07/31 13:10:16;;;;;;;;;22.00;22.00;;;;;;;;5246033;28;8783;-77
2022/07/31 13:12:49;;;;;;;;;21.25;21.00;;;;;;;;5245132;28;8780;-76
2022/07/31 13:15:28;;;;;;;;;31.00;29.25;;;;;;;;5230688;28;8829;-76
2022/07/31 13:18:03;;;;;;;;;15.00;15.00;;;;;;;;5232363;28;8779;-76
2022/07/31 13:20:34;;;;;;;;;18.25;18.25;;;;;;;;5249492;28;8773;-77
2022/07/31 13:23:07;;;;;;;;;16.25;15.75;;;;;;;;5253446;28;8819;-77
2022/07/31 13:25:58;;;;;;;;;18.25;18.25;;;;;;;;5255830;28;8799;-78
2022/07/31 13:28:29;;;;;;;;;16.50;16.50;;;;;;;;5253034;28;8779;-77
2022/07/31 13:31:00;;;;;;;;;20.25;20.25;;;;;;;;5249123;28;8798;-77
2022/07/31 13:33:31;;;;;;;;;20.00;20.00;;;;;;;;5232240;28;8801;-78
2022/07/31 13:36:20;;;;;;;;;27.00;27.00;;;;;;;;5264723;28;8780;-78
2022/07/31 13:38:51;;;;;;;;;23.50;23.50;;;;;;;;5247741;28;8789;-78
2022/07/31 13:41:22;;;;;;;;;22.50;22.50;;;;;;;;5216732;28;8800;-77
2022/07/31 13:44:12;;;;;;;;;21.75;21.25;;;;;;;;5267138;28;8821;-78
2022/07/31 13:46:43;;;;;;;;;19.75;19.75;;;;;;;;5267533;28;8778;-76
2022/07/31 13:49:14;;;;;;;;;19.25;19.25;;;;;;;;5232014;28;8782;-76
2022/07/31 13:52:04;;;;;;;;;21.75;21.75;;;;;;;;5266810;28;9576;-78
2022/07/31 13:54:35;;;;;;;;;18.75;18.75;;;;;;;;5269585;28;8794;-79
2022/07/31 13:57:06;;;;;;;;;15.00;15.00;;;;;;;;5262165;28;8802;-79
2022/07/31 13:59:37;;;;;;;;;18.50;18.00;;;;;;;;5268618;28;8802;-77
2022/07/31 14:02:08;;;;;;;;;16.75;16.75;;;;;;;;5232000;28;8826;-78
2022/07/31 14:04:39;;;;;;;;;18.50;18.50;;;;;;;;5233688;28;8805;-79
2022/07/31 14:07:10;;;;;;;;;18.50;18.50;;;;;;;;5242415;28;8924;-78
2022/07/31 14:09:59;;;;;;;;;19.50;19.50;;;;;;;;5273909;28;8798;-77
2022/07/31 14:12:30;;;;;;;;;18.33;18.33;;;;;;;;5294272;28;8863;-78
2022/07/31 14:15:03;;;;;;;;;14.00;14.00;;;;;;;;5256912;28;9095;-78
2022/07/31 14:17:52;;;;;;;;;18.00;18.00;;;;;;;;5291356;28;9728;-76
2022/07/31 14:20:23;;;;;;;;;17.00;17.00;;;;;;;;5273146;28;8775;-78
2022/07/31 14:22:54;;;;;;;;;15.00;15.00;;;;;;;;5278295;28;8993;-77
2022/07/31 14:25:25;;;;;;;;;16.25;16.25;;;;;;;;5251953;28;8944;-74
2022/07/31 14:27:56;;;;;;;;;14.00;14.00;;;;;;;;5236095;28;9516;-77
2022/07/31 14:30:27;;;;;;;;;14.75;14.50;;;;;;;;5236498;28;8794;-77
2022/07/31 14:33:02;;;;;;;;;13.33;13.33;;;;;;;;5234407;28;8824;-77
2022/07/31 14:35:33;;;;;;;;;14.25;14.25;;;;;;;;5285500;28;9026;-77
2022/07/31 14:38:04;;;;;;;;;17.25;17.25;;;;;;;;5289347;28;8821;-77
2022/07/31 14:40:35;;;;;;;;;15.75;15.75;;;;;;;;5289009;28;8870;-77
2022/07/31 14:43:09;;;;;;;;;13.75;13.75;;;;;;;;5256405;28;8811;-78
2022/07/31 14:45:40;;;;;;;;;12.50;12.50;;;;;;;;5289233;28;8834;-77
2022/07/31 14:48:11;;;;;;;;;15.75;15.75;;;;;;;;5249287;28;8785;-77
2022/07/31 14:50:42;;;;;;;;;16.50;16.00;;;;;;;;5233224;28;8802;-78
2022/07/31 14:53:12;;;;;;;;;16.00;16.00;;;;;;;;5233403;28;8797;-78
2022/07/31 14:55:44;;;;;;;;;21.75;21.75;;;;;;;;5267250;28;12292;-76
2022/07/31 14:58:15;;;;;;;;;19.75;19.75;;;;;;;;5248577;28;8797;-76
2022/07/31 15:00:46;;;;;;;;;20.75;20.75;;;;;;;;5249580;28;9533;-77
2022/07/31 15:03:17;;;;;;;;;19.00;19.00;;;;;;;;5217304;28;8820;-77
2022/07/31 15:05:48;;;;;;;;;47.80;39.80;;;;;;;;5249585;28;8857;-78
2022/07/31 15:08:19;;;;;;;;;28.33;28.33;;;;;;;;5259453;28;8795;-77
2022/07/31 15:10:50;;;;;;;;;23.25;23.25;;;;;;;;5236834;28;8855;-77
2022/07/31 15:13:21;;;;;;;;;28.00;27.50;;;;;;;;5270529;28;8802;-78
2022/07/31 15:15:52;;;;;;;;;34.75;31.75;;;;;;;;5252832;28;8953;-78
2022/07/31 15:18:23;;;;;;;;;22.00;22.00;;;;;;;;5270139;28;8802;-78
2022/07/31 15:21:16;;;;;;;;;22.50;22.50;;;;;;;;5255469;28;8830;-76
2022/07/31 15:23:47;;;;;;;;;23.75;23.75;;;;;;;;5248228;28;8855;-75
2022/07/31 15:26:20;;;;;;;;;32.67;31.00;;;;;;;;5233449;28;8798;-77
2022/07/31 15:28:55;;;;;;;;;19.50;19.50;;;;;;;;5253071;28;9169;-76
2022/07/31 15:31:26;;;;;;;;;25.75;24.75;;;;;;;;5236587;28;8918;-78
2022/07/31 15:33:57;;;;;;;;;22.00;22.00;;;;;;;;5236260;28;8782;-78